Terminal Aerodrome Forecast
Issued by NWS

Home | Current Version | Previous Version | Text Only | Print | Product List | Glossary On
Versions: 1 2 3 4 5 6 7 8 9 10 11 12 13 14 15 16 17 18 19 20 21
000
FTUS41 KPBZ 220700 AAA
TAFDUJ
TAF AMD
KDUJ 220725Z 2207/2306 VRB03KT 2SM BR BKN006
     FM221000 00000KT 1SM BR BKN006
     FM221400 17003KT P6SM SCT050=

USA.gov is the U.S. government's official web portal to all federal, state and local government web resources and services.